Home > Products > Valid Products > TAF

000
FTUS45 KBYZ 231720
TAFBIL
TAF
KBIL 231720Z 2318/2418 24015G25KT P6SM SCT080 BKN200
     FM240200 23012KT P6SM SCT080 BKN250
     FM241200 25010KT P6SM BKN080 OVC150=



000
FTUS45 KBYZ 231720
TAFMLS
TAF
KMLS 231720Z 2318/2418 24014G22KT P6SM SCT100 BKN250
     FM240200 24008KT P6SM FEW100 SCT250
     FM241600 30012KT P6SM BKN080 OVC250=



000
FTUS45 KBYZ 231720
TAFLVM
TAF
KLVM 231720Z 2318/2418 23025G35KT P6SM SCT100 BKN200
     FM240800 22018G28KT P6SM BKN060 OVC200=



000
FTUS45 KBYZ 231720
TAFSHR
TAF
KSHR 231720Z 2318/2418 30008KT P6SM FEW080 BKN250
      TEMPO 2319/2322 24012G22KT
     FM240200 24010KT P6SM FEW100 BKN250
     FM241400 VRB05KT P6SM BKN120=



000
FTUS45 KBYZ 231133
TAFLVM
TAF
KLVM 231133Z 2312/2412 23027G40KT P6SM SCT070 BKN100
     FM240000 24018G26KT P6SM BKN070=



000
FTUS45 KBYZ 231133
TAFSHR
TAF
KSHR 231133Z 2312/2412 VRB05KT P6SM BKN200
     FM231900 27010KT P6SM BKN120=



000
FTUS45 KBYZ 231133
TAFBIL
TAF
KBIL 231133Z 2312/2412 23013KT P6SM FEW120 BKN200
     FM231700 24015G22KT P6SM BKN110
     FM240100 25011KT P6SM BKN100=



000
FTUS45 KBYZ 231133
TAFMLS
TAF
KMLS 231133Z 2312/2412 16009KT P6SM SCT200
     FM231800 23011KT P6SM BKN120=



000
FTUS45 KBYZ 230530
TAFBIL
TAF
KBIL 230530Z 2306/2406 23012KT P6SM SCT250
     FM231700 24015G22KT P6SM BKN150
     FM240100 25011KT P6SM BKN150=



000
FTUS45 KBYZ 230530
TAFSHR
TAF
KSHR 230530Z 2306/2406 VRB05KT P6SM SCT200
     FM232000 26009KT P6SM BKN150=



000
FTUS45 KBYZ 230530
TAFMLS
TAF
KMLS 230530Z 2306/2406 16007KT P6SM SKC
     FM231800 23010KT P6SM BKN150=



000
FTUS45 KBYZ 230530
TAFLVM
TAF
KLVM 230530Z 2306/2406 23023G33KT P6SM FEW120 BKN200
     FM231200 23027G41KT P6SM BKN120
     FM240100 24018G26KT P6SM BKN100=



000
FTUS45 KBYZ 222323 CCA
TAFBIL
TAF COR
KBIL 222323Z 2300/2324 24012KT P6SM SCT250=



000
FTUS45 KBYZ 222320
TAFBIL
TAF
KBIL 222320Z 2300/2324 20012KT P6SM SCT250=



000
FTUS45 KBYZ 222320
TAFMLS
TAF
KMLS 222320Z 2300/2324 23008KT P6SM SKC
     FM230900 22008KT P6SM FEW250=



000
FTUS45 KBYZ 222320
TAFSHR
TAF
KSHR 222320Z 2300/2324 VRB05KT P6SM FEW250=



000
FTUS45 KBYZ 222320
TAFLVM
TAF
KLVM 222320Z 2300/2324 24018G28KT P6SM SCT200=



000
FTUS45 KBYZ 221942 AAA
TAFLVM
TAF AMD
KLVM 221942Z 2220/2318 23025G35KT P6SM FEW100 SCT200
     FM231700 24018G28KT P6SM SCT100 BKN200=



000
FTUS45 KBYZ 221720
TAFBIL
TAF
KBIL 221720Z 2218/2318 24018KT P6SM SKC
     FM230200 24010KT P6SM SKC
     FM231000 20012KT P6SM FEW100 SCT250=



000
FTUS45 KBYZ 221720
TAFBIL
TAF
KBIL 221720Z 2218/2318 24018KT P6SM SKC
     FM230200 24010KT P6SM SKC
     FM231000 20012KT P6SM FEW100 SCT250=



000
FTUS45 KBYZ 221720
TAFMLS
TAF
KMLS 221720Z 2218/2318 27015G25KT P6SM SKC
     FM230100 24011KT P6SM SKC
     FM231700 25015KT P6SM FEW250=



000
FTUS45 KBYZ 221720
TAFLVM
TAF
KLVM 221720Z 2218/2318 26015G22KT P6SM SKC
     FM230100 24020G30KT P6SM FEW250
     FM230900 23025G35KT P6SM FEW100 SCT200
     FM231700 24018G28KT P6SM SCT100 BKN200=



000
FTUS45 KBYZ 221720
TAFSHR
TAF
KSHR 221720Z 2218/2318 VRB05KT P6SM FEW250=



000
FTUS45 KBYZ 221720
TAFSHR
TAF
KSHR 221720Z 2218/2318 VRB05KT P6SM FEW250=



000
FTUS45 KBYZ 221720
TAFLVM
TAF
KLVM 221720Z 2218/2318 26015G22KT P6SM SKC
     FM230100 24020G30KT P6SM FEW250
     FM230900 23025G35KT P6SM FEW100 SCT200
     FM231700 24018G28KT P6SM SCT100 BKN200=



000
FTUS45 KBYZ 221720
TAFMLS
TAF
KMLS 221720Z 2218/2318 27015G25KT P6SM SKC
     FM230100 24011KT P6SM SKC
     FM231700 25015KT P6SM FEW250=



000
FTUS45 KBYZ 221139
TAFMLS
TAF
KMLS 221139Z 2212/2312 27011KT P6SM FEW060
     FM221600 28017G26KT P6SM FEW100
     FM222300 26009KT P6SM SKC
     FM230500 16007KT P6SM SCT200=



000
FTUS45 KBYZ 221139
TAFBIL
TAF
KBIL 221139Z 2212/2312 27017G25KT P6SM FEW100
     FM222000 26012G18KT P6SM FEW120
     FM230000 24011KT P6SM SCT200=



000
FTUS45 KBYZ 221139
TAFSHR
TAF
KSHR 221139Z 2212/2312 VRB06KT P6SM FEW120=



000
FTUS45 KBYZ 221139
TAFLVM
TAF
KLVM 221139Z 2212/2312 25015KT P6SM SCT070
     FM221600 24016G24KT P6SM FEW100
     FM230800 22025G35KT P6SM BKN150=



000
FTUS45 KBYZ 221100 AAB
TAFBIL
TAF AMD
KBIL 221100Z 2211/2306 28017G24KT P6SM FEW100
     FM221300 25011KT P6SM SCT120
     FM221700 26012G18KT P6SM FEW120
     FM230000 24010KT P6SM SKC=



000
FTUS45 KBYZ 221100 AAB
TAFBIL
TAF AMD
KBIL 221100Z 2211/2306 28017G24KT P6SM FEW100
     FM221300 25011KT P6SM SCT120
     FM221700 26012G18KT P6SM FEW120
     FM230000 24010KT P6SM SKC=



000
FTUS45 KBYZ 220900 AAA
TAFBIL
TAF AMD
KBIL 220900Z 2209/2306 28018KT P6SM FEW100
     FM221100 25011KT P6SM SCT120
     FM221700 26012G18KT P6SM FEW120
     FM230000 24010KT P6SM SKC=



000
FTUS45 KBYZ 220536
TAFSHR
TAF
KSHR 220536Z 2206/2306 31015KT P6SM FEW120
     FM220900 29009KT P6SM FEW120
     FM230000 VRB04KT P6SM SKC=



000
FTUS45 KBYZ 220536
TAFBIL
TAF
KBIL 220536Z 2206/2306 28018KT P6SM FEW090 SCT120
     FM220900 25011KT P6SM SCT120
     FM221700 26012G18KT P6SM FEW120
     FM230000 24010KT P6SM SKC=



000
FTUS45 KBYZ 220536
TAFLVM
TAF
KLVM 220536Z 2206/2306 26011KT P6SM SCT070
     FM221700 25014G21KT P6SM FEW120=



000
FTUS45 KBYZ 220536
TAFMLS
TAF
KMLS 220536Z 2206/2306 28013KT P6SM VCSH BKN100
     FM220700 27011KT P6SM SCT100
     FM221700 28014G21KT P6SM FEW100
     FM230000 24009KT P6SM SKC=



000
FTUS45 KBYZ 220536
TAFSHR
TAF
KSHR 220536Z 2206/2306 31015KT P6SM FEW120
     FM220900 29009KT P6SM FEW120
     FM230000 VRB04KT P6SM SKC=



000
FTUS45 KBYZ 220536
TAFBIL
TAF
KBIL 220536Z 2206/2306 28018KT P6SM FEW090 SCT120
     FM220900 25011KT P6SM SCT120
     FM221700 26012G18KT P6SM FEW120
     FM230000 24010KT P6SM SKC=



000
FTUS45 KBYZ 220536
TAFLVM
TAF
KLVM 220536Z 2206/2306 26011KT P6SM SCT070
     FM221700 25014G21KT P6SM FEW120=



000
FTUS45 KBYZ 220536
TAFMLS
TAF
KMLS 220536Z 2206/2306 28013KT P6SM VCSH BKN100
     FM220700 27011KT P6SM SCT100
     FM221700 28014G21KT P6SM FEW100
     FM230000 24009KT P6SM SKC=



000
FTUS45 KBYZ 220502 AAA
TAFMLS
TAF AMD
KMLS 220502Z 2205/2224 28017KT P6SM -SHRA BKN090
     FM220600 28015KT P6SM BKN100
     FM220800 27011KT P6SM SCT100=



000
FTUS45 KBYZ 220502 AAA
TAFMLS
TAF AMD
KMLS 220502Z 2205/2224 28017KT P6SM -SHRA BKN090
     FM220600 28015KT P6SM BKN100
     FM220800 27011KT P6SM SCT100=



000
FTUS45 KBYZ 220438 AAA
TAFBIL
TAF AMD
KBIL 220438Z 2205/2224 28017G25KT P6SM SCT080 BKN120
     FM220800 27011KT P6SM FEW080 SCT120=



000
FTUS45 KBYZ 220438 AAA
TAFBIL
TAF AMD
KBIL 220438Z 2205/2224 28017G25KT P6SM SCT080 BKN120
     FM220800 27011KT P6SM FEW080 SCT120=



000
FTUS45 KBYZ 220436 AAB
TAFLVM
TAF AMD
KLVM 220436Z 2205/2224 27014G21KT P6SM SCT070 BKN100
     FM220600 25011KT P6SM SCT100=



000
FTUS45 KBYZ 220436 AAB
TAFLVM
TAF AMD
KLVM 220436Z 2205/2224 27014G21KT P6SM SCT070 BKN100
     FM220600 25011KT P6SM SCT100=



000
FTUS45 KBYZ 220257 AAA
TAFLVM
TAF AMD
KLVM 220257Z 2203/2224 25025G35KT P6SM SCT070 BKN100
     FM220600 25011KT P6SM SCT100=



000
FTUS45 KBYZ 212334
TAFMLS
TAF
KMLS 212334Z 2200/2224 26009KT P6SM VCSH BKN150
     FM220300 29018G27KT P6SM BKN090
     FM220800 27011KT P6SM SCT100=



000
FTUS45 KBYZ 212334
TAFSHR
TAF
KSHR 212334Z 2200/2224 29016G25KT P6SM SCT090 BKN120
     FM220600 29007KT P6SM SCT120=



000
FTUS45 KBYZ 212334
TAFBIL
TAF
KBIL 212334Z 2200/2224 27023G35KT P6SM BKN080
     FM220800 27011KT P6SM FEW080 SCT120=



000
FTUS45 KBYZ 212334
TAFLVM
TAF
KLVM 212334Z 2200/2224 25025G38KT P6SM VCSH BKN080
     FM220200 26019KT P6SM VCSH SCT070 BKN100
     FM220600 25011KT P6SM SCT100=



000
FTUS45 KBYZ 212031 AAA
TAFSHR
TAF AMD
KSHR 212031Z 2121/2218 24015KT P6SM FEW100 BKN150
     FM220100 31016G25KT P6SM VCSH SCT090 BKN120
     FM220600 28007KT P6SM SCT120=



000
FTUS45 KBYZ 211720
TAFSHR
TAF
KSHR 211720Z 2118/2218 VRB04KT P6SM SCT200
     FM212100 25011KT P6SM FEW100 BKN150
     FM220100 31016G25KT P6SM VCSH SCT090 BKN120
     FM220600 28007KT P6SM SCT120=



000
FTUS45 KBYZ 211720
TAFBIL
TAF
KBIL 211720Z 2118/2218 24013G20KT P6SM VCSH FEW100 BKN150
     FM212300 27023G35KT P6SM VCSH BKN080
     FM220300 27018KT P6SM FEW080 SCT120=



000
FTUS45 KBYZ 211720
TAFMLS
TAF
KMLS 211720Z 2118/2218 16008KT P6SM SCT250
     FM212100 24009KT P6SM BKN150
     FM220200 29018G27KT P6SM BKN090
     FM220800 27016KT P6SM SCT100=



000
FTUS45 KBYZ 211720
TAFLVM
TAF
KLVM 211720Z 2118/2218 23025G37KT P6SM VCSH SCT080 BKN120
     FM212200 27023G35KT P6SM VCSH BKN080
     FM220200 26019KT P6SM VCSH SCT070 BKN100
     FM220500 25015KT P6SM SCT100=



000
FTUS45 KBYZ 211140
TAFBIL
TAF
KBIL 211140Z 2112/2212 23011KT P6SM SCT200
     FM211900 24013G20KT P6SM FEW100 BKN150
     FM212330 27023G35KT P6SM VCSH BKN080
     FM220300 27018KT P6SM FEW080 SCT120=



000
FTUS45 KBYZ 211140
TAFMLS
TAF
KMLS 211140Z 2112/2212 VRB05KT P6SM SKC
     FM211500 16008KT P6SM SCT250
     FM212100 24009KT P6SM BKN150
     FM220200 29018G27KT P6SM BKN090
     FM220800 27016KT P6SM SCT100=



000
FTUS45 KBYZ 211140
TAFMLS
TAF
KMLS 211140Z 2112/2212 VRB05KT P6SM SKC
     FM211500 16008KT P6SM SCT250
     FM212100 24009KT P6SM BKN150
     FM220200 29018G27KT P6SM BKN090
     FM220800 27016KT P6SM SCT100=



000
FTUS45 KBYZ 211140
TAFLVM
TAF
KLVM 211140Z 2112/2212 23011KT P6SM FEW100 BKN200
     FM211400 23014G22KT P6SM VCSH SCT090 BKN150
     FM211800 23025G37KT P6SM VCSH SCT080 BKN120
     FM212200 27023G35KT P6SM VCSH BKN080
     FM220200 26019KT P6SM VCSH SCT070 BKN100
     FM220500 25015KT P6SM SCT100=



000
FTUS45 KBYZ 211140
TAFSHR
TAF
KSHR 211140Z 2112/2212 VRB04KT P6SM SCT200
     FM212100 25011KT P6SM FEW100 BKN150
     FM220100 31016G25KT P6SM VCSH SCT090 BKN120
     FM220600 28007KT P6SM SCT120=



000
FTUS45 KBYZ 211140
TAFBIL
TAF
KBIL 211140Z 2112/2212 23011KT P6SM SCT200
     FM211900 24013G20KT P6SM FEW100 BKN150
     FM212330 27023G35KT P6SM VCSH BKN080
     FM220300 27018KT P6SM FEW080 SCT120=



000
FTUS45 KBYZ 211140
TAFSHR
TAF
KSHR 211140Z 2112/2212 VRB04KT P6SM SCT200
     FM212100 25011KT P6SM FEW100 BKN150
     FM220100 31016G25KT P6SM VCSH SCT090 BKN120
     FM220600 28007KT P6SM SCT120=



000
FTUS45 KBYZ 211140
TAFBIL
TAF
KBIL 211140Z 2112/2212 23011KT P6SM SCT200
     FM211900 24013G20KT P6SM FEW100 BKN150
     FM212330 27023G35KT P6SM VCSH BKN080
     FM220300 27018KT P6SM FEW080 SCT120=



000
FTUS45 KBYZ 211140
TAFLVM
TAF
KLVM 211140Z 2112/2212 23011KT P6SM FEW100 BKN200
     FM211400 23014G22KT P6SM VCSH SCT090 BKN150
     FM211800 23025G37KT P6SM VCSH SCT080 BKN120
     FM212200 27023G35KT P6SM VCSH BKN080
     FM220200 26019KT P6SM VCSH SCT070 BKN100
     FM220500 25015KT P6SM SCT100=



000
FTUS45 KBYZ 211140
TAFSHR
TAF
KSHR 211140Z 2112/2212 VRB04KT P6SM SCT200
     FM212100 25011KT P6SM FEW100 BKN150
     FM220100 31016G25KT P6SM VCSH SCT090 BKN120
     FM220600 28007KT P6SM SCT120=



000
FTUS45 KBYZ 211140
TAFLVM
TAF
KLVM 211140Z 2112/2212 23011KT P6SM FEW100 BKN200
     FM211400 23014G22KT P6SM VCSH SCT090 BKN150
     FM211800 23025G37KT P6SM VCSH SCT080 BKN120
     FM212200 27023G35KT P6SM VCSH BKN080
     FM220200 26019KT P6SM VCSH SCT070 BKN100
     FM220500 25015KT P6SM SCT100=



000
FTUS45 KBYZ 211140
TAFBIL
TAF
KBIL 211140Z 2112/2212 23011KT P6SM SCT200
     FM211900 24013G20KT P6SM FEW100 BKN150
     FM212330 27023G35KT P6SM VCSH BKN080
     FM220300 27018KT P6SM FEW080 SCT120=



000
FTUS45 KBYZ 211140
TAFMLS
TAF
KMLS 211140Z 2112/2212 VRB05KT P6SM SKC
     FM211500 16008KT P6SM SCT250
     FM212100 24009KT P6SM BKN150
     FM220200 29018G27KT P6SM BKN090
     FM220800 27016KT P6SM SCT100=



000
FTUS45 KBYZ 211140
TAFMLS
TAF
KMLS 211140Z 2112/2212 VRB05KT P6SM SKC
     FM211500 16008KT P6SM SCT250
     FM212100 24009KT P6SM BKN150
     FM220200 29018G27KT P6SM BKN090
     FM220800 27016KT P6SM SCT100=



000
FTUS45 KBYZ 211140
TAFLVM
TAF
KLVM 211140Z 2112/2212 23011KT P6SM FEW100 BKN200
     FM211400 23014G22KT P6SM VCSH SCT090 BKN150
     FM211800 23025G37KT P6SM VCSH SCT080 BKN120
     FM212200 27023G35KT P6SM VCSH BKN080
     FM220200 26019KT P6SM VCSH SCT070 BKN100
     FM220500 25015KT P6SM SCT100=



000
FTUS45 KBYZ 211140
TAFSHR
TAF
KSHR 211140Z 2112/2212 VRB04KT P6SM SCT200
     FM212100 25011KT P6SM FEW100 BKN150
     FM220100 31016G25KT P6SM VCSH SCT090 BKN120
     FM220600 28007KT P6SM SCT120=



000
FTUS45 KBYZ 210520
TAFLVM
TAF
KLVM 210520Z 2106/2206 23011KT P6SM SKC
     FM211200 23014G22KT P6SM FEW100 SCT200
     FM211700 23020G30KT P6SM VCSH SCT080 BKN120
     FM212200 27022G32KT P6SM VCSH BKN080
     FM220300 26015KT P6SM VCSH SCT070 BKN100=



000
FTUS45 KBYZ 210520
TAFMLS
TAF
KMLS 210520Z 2106/2206 15009KT P6SM SKC
     FM212000 24009KT P6SM BKN200
     FM220200 29013G20KT P6SM BKN090=



000
FTUS45 KBYZ 210520
TAFSHR
TAF
KSHR 210520Z 2106/2206 VRB04KT P6SM SKC
     FM212100 24010KT P6SM FEW100 BKN200
     FM220100 31015G22KT P6SM VCSH SCT090 BKN150=



000
FTUS45 KBYZ 210520
TAFBIL
TAF
KBIL 210520Z 2106/2206 22009KT P6SM SKC
     FM211900 23011G18KT P6SM FEW100 SCT200
     FM212300 27018G26KT P6SM VCSH BKN080=



000
FTUS45 KBYZ 210520
TAFBIL
TAF
KBIL 210520Z 2106/2206 22009KT P6SM SKC
     FM211900 23011G18KT P6SM FEW100 SCT200
     FM212300 27018G26KT P6SM VCSH BKN080=



000
FTUS45 KBYZ 210520
TAFSHR
TAF
KSHR 210520Z 2106/2206 VRB04KT P6SM SKC
     FM212100 24010KT P6SM FEW100 BKN200
     FM220100 31015G22KT P6SM VCSH SCT090 BKN150=



000
FTUS45 KBYZ 210520
TAFMLS
TAF
KMLS 210520Z 2106/2206 15009KT P6SM SKC
     FM212000 24009KT P6SM BKN200
     FM220200 29013G20KT P6SM BKN090=



000
FTUS45 KBYZ 210520
TAFLVM
TAF
KLVM 210520Z 2106/2206 23011KT P6SM SKC
     FM211200 23014G22KT P6SM FEW100 SCT200
     FM211700 23020G30KT P6SM VCSH SCT080 BKN120
     FM212200 27022G32KT P6SM VCSH BKN080
     FM220300 26015KT P6SM VCSH SCT070 BKN100=



000
FTUS45 KBYZ 210500 AAA
TAFLVM
TAF AMD
KLVM 210500Z 2105/2124 25010KT P6SM SKC
     FM211200 24014G24KT P6SM SCT100
     FM211800 26023G27KT P6SM BKN250=



000
FTUS45 KBYZ 202320
TAFLVM
TAF
KLVM 202320Z 2100/2124 22011KT P6SM SKC
     FM210500 24014G24KT P6SM SCT100
     FM211800 26023G27KT P6SM BKN250=



000
FTUS45 KBYZ 202320
TAFBIL
TAF
KBIL 202320Z 2100/2124 22007KT P6SM SKC
     FM211200 23013KT P6SM FEW100=



000
FTUS45 KBYZ 202320
TAFSHR
TAF
KSHR 202320Z 2100/2124 VRB03KT P6SM SKC=



000
FTUS45 KBYZ 202320
TAFMLS
TAF
KMLS 202320Z 2100/2124 VRB06KT P6SM SKC
     FM211800 32012KT P6SM BKN250=



000
FTUS45 KBYZ 202320
TAFLVM
TAF
KLVM 202320Z 2100/2124 22011KT P6SM SKC
     FM210500 24014G24KT P6SM SCT100
     FM211800 26023G27KT P6SM BKN250=



000
FTUS45 KBYZ 202320
TAFBIL
TAF
KBIL 202320Z 2100/2124 22007KT P6SM SKC
     FM211200 23013KT P6SM FEW100=



000
FTUS45 KBYZ 202320
TAFMLS
TAF
KMLS 202320Z 2100/2124 VRB06KT P6SM SKC
     FM211800 32012KT P6SM BKN250=



000
FTUS45 KBYZ 202320
TAFSHR
TAF
KSHR 202320Z 2100/2124 VRB03KT P6SM SKC=



    US Dept of Commerce
    National Oceanic and Atmospheric Administration
    National Weather Service
    1325 East West Highway
    Silver Spring, MD 20910
    Page Author: NWS Internet Services Team
Disclaimer
Information Quality
Credits
Glossary
Privacy Policy
Freedom of Information Act (FOIA)
About Us
Career Opportunities